Time;durP1;ratioP1;P1;durP2;ratioP2;P2;SDS_P1;SDS_P2;PMS_P1;PMS_P2;Temp;Humidity;BMP_temperature;BMP_pressure;BME280_temperature;BME280_humidity;BME280_pressure;Samples;Min_cycle;Max_cycle;Signal;HPM_P1;HPM_P2
2022/10/06 00:01:05;;;;;;;29.42;20.50;;;;;;;10.72;100.00;101805.31;1656749;85;21663;-70
2022/10/06 00:03:32;;;;;;;25.97;18.55;;;;;;;10.75;100.00;101810.86;1665268;83;21193;-71
2022/10/06 00:06:02;;;;;;;30.62;19.00;;;;;;;10.71;100.00;101816.52;1661990;85;21590;-71
2022/10/06 00:08:33;;;;;;;34.10;19.50;;;;;;;10.71;100.00;101810.08;1662991;84;21101;-70
2022/10/06 00:11:00;;;;;;;29.90;19.35;;;;;;;10.75;100.00;101812.14;1671562;84;21170;-70
2022/10/06 00:13:29;;;;;;;30.40;19.92;;;;;;;10.72;100.00;101810.91;1659399;85;21062;-70
2022/10/06 00:15:56;;;;;;;29.10;19.32;;;;;;;10.69;100.00;101809.72;1667463;84;21069;-70
2022/10/06 00:18:26;;;;;;;26.97;18.60;;;;;;;10.68;100.00;101809.30;1657815;84;21129;-70
2022/10/06 00:20:59;;;;;;;29.20;18.73;;;;;;;10.68;100.00;101813.16;1660649;84;21102;-70
2022/10/06 00:23:28;;;;;;;26.97;17.85;;;;;;;10.69;100.00;101816.99;1663023;83;21589;-70
2022/10/06 00:25:57;;;;;;;25.77;18.37;;;;;;;10.71;100.00;101816.96;1669728;84;21607;-71
2022/10/06 00:28:24;;;;;;;29.18;17.87;;;;;;;10.71;100.00;101815.67;1664667;84;21061;-70
2022/10/06 00:30:52;;;;;;;24.82;17.00;;;;;;;10.66;100.00;101818.78;1666927;84;21530;-70
2022/10/06 00:33:19;;;;;;;26.75;17.35;;;;;;;10.61;100.00;101825.34;1665136;84;21061;-70
2022/10/06 00:35:49;;;;;;;24.35;16.65;;;;;;;10.58;100.00;101826.68;1664021;85;21539;-70
2022/10/06 00:38:17;;;;;;;27.05;16.75;;;;;;;10.58;100.00;101823.69;1664641;84;21054;-71
2022/10/06 00:40:47;;;;;;;25.90;16.75;;;;;;;10.58;100.00;101819.83;1663013;84;21010;-70
2022/10/06 00:43:52;;;;;;;27.87;17.82;;;;;;;10.53;100.00;101820.36;1663149;84;21128;-71
2022/10/06 00:46:39;;;;;;;28.05;18.05;;;;;;;10.56;100.00;101817.73;1654101;84;21117;-71
2022/10/06 00:49:17;;;;;;;26.10;17.52;;;;;;;10.56;100.00;101816.44;1668989;83;21079;-70
2022/10/06 00:51:51;;;;;;;25.50;17.40;;;;;;;10.52;100.00;101814.81;1660988;84;21170;-70
2022/10/06 00:54:19;;;;;;;24.75;18.30;;;;;;;10.52;100.00;101810.95;1667673;84;21050;-71
2022/10/06 00:56:46;;;;;;;32.90;17.90;;;;;;;10.49;100.00;101802.00;1662989;84;21043;-71
2022/10/06 00:59:17;;;;;;;31.20;18.85;;;;;;;10.51;100.00;101797.66;1642968;85;21077;-71
2022/10/06 01:02:15;;;;;;;28.98;18.27;;;;;;;10.48;100.00;101792.56;1662443;84;21050;-71
2022/10/06 01:04:50;;;;;;;25.80;18.25;;;;;;;10.43;100.00;101791.39;1660554;83;21081;-70
2022/10/06 01:07:20;;;;;;;29.35;18.80;;;;;;;10.41;100.00;101788.46;1657403;83;21065;-71
2022/10/06 01:09:48;;;;;;;27.30;17.15;;;;;;;10.39;100.00;101779.92;1661570;83;21109;-70
2022/10/06 01:12:16;;;;;;;25.23;17.60;;;;;;;10.38;100.00;101783.36;1670197;84;21526;-70
2022/10/06 01:14:43;;;;;;;28.07;17.77;;;;;;;10.35;100.00;101774.00;1660886;84;21662;-71
2022/10/06 01:17:21;;;;;;;26.17;17.35;;;;;;;10.32;100.00;101776.66;1663891;85;21077;-71
2022/10/06 01:20:07;;;;;;;27.85;17.60;;;;;;;10.30;100.00;101773.69;1639259;84;21110;-71
2022/10/06 01:22:38;;;;;;;24.77;16.93;;;;;;;10.16;100.00;101772.70;1667129;83;21062;-71
2022/10/06 01:25:08;;;;;;;25.23;16.70;;;;;;;10.09;100.00;101774.98;1656862;85;21124;-71
2022/10/06 01:27:38;;;;;;;25.52;17.35;;;;;;;10.02;100.00;101769.98;1658180;83;21141;-71
2022/10/06 01:30:09;;;;;;;30.35;18.32;;;;;;;9.98;100.00;101779.09;1666519;84;21089;-71
2022/10/06 01:32:38;;;;;;;26.45;17.02;;;;;;;9.94;100.00;101783.44;1668221;84;21038;-71
2022/10/06 01:35:08;;;;;;;23.73;16.90;;;;;;;9.91;100.00;101778.34;1658273;84;21077;-71
2022/10/06 01:37:35;;;;;;;21.33;15.75;;;;;;;9.85;100.00;101778.92;1658981;84;21404;-71
2022/10/06 01:40:04;;;;;;;22.20;15.85;;;;;;;9.82;100.00;101777.27;1638567;85;21141;-70
2022/10/06 01:42:34;;;;;;;23.98;15.55;;;;;;;9.83;100.00;101774.67;1650861;84;21098;-70
2022/10/06 01:45:03;;;;;;;22.93;15.90;;;;;;;9.82;100.00;101768.27;1661398;84;21050;-71
2022/10/06 01:47:30;;;;;;;23.52;14.87;;;;;;;9.81;100.00;101758.43;1664123;85;21046;-70
2022/10/06 01:49:59;;;;;;;21.42;15.03;;;;;;;9.84;100.00;101751.08;1665432;84;21098;-71
2022/10/06 01:52:27;;;;;;;20.72;14.40;;;;;;;9.86;100.00;101746.75;1635145;85;21068;-71
2022/10/06 01:54:54;;;;;;;21.62;14.78;;;;;;;9.85;100.00;101748.06;1644512;85;21062;-71
2022/10/06 01:57:22;;;;;;;19.15;13.55;;;;;;;9.87;100.00;101754.86;1655879;84;21168;-70
2022/10/06 01:59:49;;;;;;;18.12;13.70;;;;;;;9.90;100.00;101751.39;1660667;84;21078;-70
2022/10/06 02:02:17;;;;;;;18.65;13.43;;;;;;;9.94;100.00;101751.73;1657905;84;21106;-70
2022/10/06 02:04:45;;;;;;;20.95;13.53;;;;;;;9.95;100.00;101757.27;1665457;84;21109;-71
2022/10/06 02:07:12;;;;;;;18.25;13.60;;;;;;;9.97;100.00;101758.09;1666971;84;21105;-71
2022/10/06 02:09:41;;;;;;;17.85;12.98;;;;;;;9.98;100.00;101755.94;1663071;84;21051;-71
2022/10/06 02:12:08;;;;;;;20.52;13.50;;;;;;;9.96;100.00;101770.11;1666195;85;21088;-70
2022/10/06 02:14:37;;;;;;;22.65;13.98;;;;;;;9.92;100.00;101767.64;1659990;84;21091;-71
2022/10/06 02:17:05;;;;;;;18.40;13.32;;;;;;;9.88;100.00;101765.56;1661534;84;21007;-71
2022/10/06 02:19:34;;;;;;;23.55;13.80;;;;;;;9.90;100.00;101777.12;1665677;84;21125;-71
2022/10/06 02:22:01;;;;;;;19.12;13.18;;;;;;;9.88;100.00;101776.30;1671627;84;21170;-70
2022/10/06 02:24:29;;;;;;;20.23;13.45;;;;;;;9.87;100.00;101778.00;1659445;84;21100;-70
2022/10/06 02:26:56;;;;;;;19.23;13.10;;;;;;;9.87;100.00;101774.14;1658551;85;21069;-70
2022/10/06 02:29:23;;;;;;;19.48;13.10;;;;;;;9.91;100.00;101769.34;1663436;83;20998;-72
2022/10/06 02:31:51;;;;;;;20.45;13.78;;;;;;;9.92;100.00;101771.50;1663301;84;21140;-71
2022/10/06 02:34:18;;;;;;;21.60;14.05;;;;;;;9.86;100.00;101784.48;1666452;84;21089;-71
2022/10/06 02:36:45;;;;;;;24.23;13.48;;;;;;;9.79;100.00;101789.76;1661927;84;21073;-71
2022/10/06 02:39:12;;;;;;;23.02;14.10;;;;;;;9.72;100.00;101790.75;1663049;85;21519;-71
2022/10/06 02:41:40;;;;;;;23.38;13.68;;;;;;;9.71;100.00;101795.50;1659232;84;22422;-71
2022/10/06 02:44:08;;;;;;;26.55;14.18;;;;;;;9.69;100.00;101783.11;1670190;84;21103;-71
2022/10/06 02:46:37;;;;;;;21.95;12.80;;;;;;;9.68;100.00;101793.41;1658555;85;21098;-71
2022/10/06 02:49:05;;;;;;;23.65;13.22;;;;;;;9.61;100.00;101802.95;1669476;84;21102;-71
2022/10/06 02:51:34;;;;;;;21.48;14.50;;;;;;;9.59;100.00;101804.29;1659758;84;21054;-71
2022/10/06 02:54:01;;;;;;;20.62;13.55;;;;;;;9.52;100.00;101807.00;1666006;85;21042;-70
2022/10/06 02:56:28;;;;;;;24.10;14.40;;;;;;;9.50;100.00;101805.73;1661421;84;21031;-70
2022/10/06 02:58:56;;;;;;;20.72;13.95;;;;;;;9.48;100.00;101807.94;1664015;84;21459;-71
2022/10/06 03:01:27;;;;;;;20.25;14.25;;;;;;;9.54;100.00;101813.80;1659825;84;21151;-71
2022/10/06 03:03:57;;;;;;;23.90;14.83;;;;;;;9.57;100.00;101814.17;1660394;84;21038;-71
2022/10/06 03:06:27;;;;;;;23.77;14.47;;;;;;;9.55;100.00;101811.65;1660265;83;21023;-71
2022/10/06 03:09:10;;;;;;;20.35;14.53;;;;;;;9.61;100.00;101814.52;1659802;84;21102;-71
2022/10/06 03:11:41;;;;;;;20.62;14.20;;;;;;;9.64;100.00;101817.05;1667973;85;21104;-71
2022/10/06 03:14:10;;;;;;;25.23;15.83;;;;;;;9.55;100.00;101815.51;1671803;85;21062;-71
2022/10/06 03:16:41;;;;;;;25.62;14.93;;;;;;;9.46;100.00;101814.38;1661012;83;21027;-70
2022/10/06 03:19:15;;;;;;;23.47;14.93;;;;;;;9.47;100.00;101814.80;1663578;84;21094;-71
2022/10/06 03:21:44;;;;;;;20.97;14.68;;;;;;;9.43;100.00;101801.60;1660791;83;21094;-71
2022/10/06 03:24:12;;;;;;;19.15;13.22;;;;;;;9.50;100.00;101812.61;1660493;84;21050;-71
2022/10/06 03:26:43;;;;;;;16.93;11.63;;;;;;;9.48;100.00;101810.50;1663681;84;21122;-71
2022/10/06 03:29:11;;;;;;;16.48;10.85;;;;;;;9.41;100.00;101818.33;1664353;83;21101;-71
2022/10/06 03:31:42;;;;;;;16.65;11.10;;;;;;;9.36;100.00;101816.70;1667628;84;21514;-71
2022/10/06 03:34:09;;;;;;;16.57;11.38;;;;;;;9.36;100.00;101822.69;1663293;85;21109;-70
2022/10/06 03:36:37;;;;;;;19.02;11.33;;;;;;;9.29;100.00;101821.56;1659713;84;21483;-71
2022/10/06 03:39:05;;;;;;;20.27;11.93;;;;;;;9.31;100.00;101824.95;1666011;83;21038;-71
2022/10/06 03:41:36;;;;;;;18.55;11.65;;;;;;;9.27;100.00;101825.88;1662362;85;21086;-71
2022/10/06 03:44:05;;;;;;;18.52;12.23;;;;;;;9.27;100.00;101816.89;1631924;85;21494;-71
2022/10/06 03:46:35;;;;;;;16.02;12.10;;;;;;;9.27;100.00;101813.88;1660280;83;21677;-71
2022/10/06 03:49:04;;;;;;;21.30;12.93;;;;;;;9.28;100.00;101814.72;1657714;84;21122;-71
2022/10/06 03:51:35;;;;;;;17.52;12.60;;;;;;;9.25;100.00;101813.05;1663232;83;21503;-71
2022/10/06 03:54:03;;;;;;;20.97;12.73;;;;;;;9.21;100.00;101820.41;1658180;84;21148;-71
2022/10/06 03:56:34;;;;;;;20.68;12.98;;;;;;;9.17;100.00;101822.17;1668161;84;21096;-71
2022/10/06 03:59:09;;;;;;;22.45;12.80;;;;;;;9.17;100.00;101817.48;1661267;83;21100;-71
2022/10/06 04:01:41;;;;;;;18.73;13.43;;;;;;;9.17;100.00;101821.33;1661940;84;21133;-71
2022/10/06 04:04:11;;;;;;;19.77;12.67;;;;;;;9.16;100.00;101823.03;1663233;83;21094;-71
2022/10/06 04:06:42;;;;;;;19.85;12.70;;;;;;;9.16;100.00;101818.34;1662390;84;21847;-71
2022/10/06 04:09:14;;;;;;;19.85;12.80;;;;;;;9.20;100.00;101825.98;1650560;85;22282;-71
2022/10/06 04:11:43;;;;;;;17.75;12.82;;;;;;;9.24;100.00;101830.61;1665487;84;21039;-71
2022/10/06 04:14:14;;;;;;;20.43;13.08;;;;;;;9.27;100.00;101832.30;1656325;84;21145;-71
2022/10/06 04:16:44;;;;;;;20.90;13.13;;;;;;;9.29;100.00;101839.11;1661227;84;21180;-71
2022/10/06 04:19:14;;;;;;;23.00;13.60;;;;;;;9.34;100.00;101833.87;1657665;84;21059;-71
2022/10/06 04:21:46;;;;;;;20.97;13.65;;;;;;;9.40;100.00;101831.20;1662810;83;21113;-71
2022/10/06 04:24:17;;;;;;;20.05;14.30;;;;;;;9.52;100.00;101828.40;1660149;84;21136;-71
2022/10/06 04:26:48;;;;;;;24.72;14.00;;;;;;;9.66;100.00;101830.72;1664108;85;21142;-71
2022/10/06 04:29:17;;;;;;;19.77;12.50;;;;;;;9.74;100.00;101835.27;1660958;85;21035;-71
2022/10/06 04:31:45;;;;;;;20.08;12.40;;;;;;;9.75;100.00;101830.56;1662420;84;21031;-71
2022/10/06 04:34:20;;;;;;;18.85;12.93;;;;;;;9.81;100.00;101833.42;1655699;84;21098;-71
2022/10/06 04:36:47;;;;;;;20.82;13.40;;;;;;;9.83;100.00;101833.83;1666999;84;22957;-71
2022/10/06 04:39:17;;;;;;;15.43;11.85;;;;;;;9.85;100.00;101833.77;1665255;84;21058;-71
2022/10/06 04:41:47;;;;;;;24.00;12.70;;;;;;;9.89;100.00;101829.42;1660217;85;21026;-71
2022/10/06 04:44:16;;;;;;;18.92;12.33;;;;;;;9.97;100.00;101830.11;1662741;84;21526;-72
2022/10/06 04:46:44;;;;;;;17.35;13.18;;;;;;;10.10;100.00;101825.13;1657811;84;21074;-71
2022/10/06 04:49:12;;;;;;;17.62;12.80;;;;;;;10.28;100.00;101823.90;1665225;84;21045;-71
2022/10/06 04:51:39;;;;;;;22.02;12.80;;;;;;;10.40;100.00;101825.36;1665922;85;21083;-71
2022/10/06 04:54:08;;;;;;;19.65;12.58;;;;;;;10.51;100.00;101831.13;1668131;84;21042;-72
2022/10/06 04:56:35;;;;;;;18.00;12.07;;;;;;;10.60;100.00;101828.36;1668755;85;21115;-71
2022/10/06 04:59:05;;;;;;;16.02;12.37;;;;;;;10.71;100.00;101829.84;1666973;84;21074;-71
2022/10/06 05:01:36;;;;;;;17.57;11.33;;;;;;;10.78;100.00;101821.06;1657884;85;21073;-71
2022/10/06 05:04:06;;;;;;;21.12;12.58;;;;;;;10.89;100.00;101819.09;1663553;84;21085;-72
2022/10/06 05:06:39;;;;;;;16.45;11.43;;;;;;;10.99;100.00;101819.72;1663327;84;21047;-72
2022/10/06 05:09:13;;;;;;;15.68;11.20;;;;;;;11.09;100.00;101826.75;1660104;84;21105;-71
2022/10/06 05:11:42;;;;;;;16.10;11.10;;;;;;;11.24;100.00;101822.52;1660474;85;21875;-71
2022/10/06 05:14:11;;;;;;;15.58;10.55;;;;;;;11.40;100.00;101825.55;1661589;84;21086;-71
2022/10/06 05:16:41;;;;;;;23.42;10.45;;;;;;;11.51;100.00;101830.41;1660091;83;21039;-72
2022/10/06 05:19:11;;;;;;;17.25;9.98;;;;;;;11.54;100.00;101832.91;1663693;83;21034;-72
2022/10/06 05:21:39;;;;;;;14.90;10.08;;;;;;;11.66;100.00;101823.97;1669355;84;21098;-72
2022/10/06 05:24:08;;;;;;;17.82;10.40;;;;;;;11.78;100.00;101831.38;1660772;84;21047;-72
2022/10/06 05:26:37;;;;;;;13.30;8.95;;;;;;;11.93;100.00;101828.86;1661830;84;21038;-70
2022/10/06 05:29:06;;;;;;;13.50;9.15;;;;;;;11.95;100.00;101829.66;1619825;86;21202;-71
2022/10/06 05:31:41;;;;;;;15.03;8.55;;;;;;;12.03;100.00;101832.41;1607367;86;21115;-70
2022/10/06 05:34:07;;;;;;;17.75;9.35;;;;;;;12.13;100.00;101833.45;1608152;86;21151;-71
2022/10/06 05:36:35;;;;;;;12.98;8.83;;;;;;;12.20;100.00;101838.36;1609430;87;21128;-70
2022/10/06 05:39:03;;;;;;;11.40;8.80;;;;;;;12.22;100.00;101843.03;1660338;84;21047;-71
2022/10/06 05:41:36;;;;;;;13.27;8.80;;;;;;;12.33;100.00;101839.31;1604767;87;21088;-71
2022/10/06 05:44:07;;;;;;;12.65;8.93;;;;;;;12.51;100.00;101849.08;1606340;86;21968;-71
2022/10/06 05:46:36;;;;;;;16.02;9.05;;;;;;;12.66;100.00;101850.33;1608516;86;21153;-71
2022/10/06 05:49:09;;;;;;;14.83;9.55;;;;;;;12.88;100.00;101860.84;1606079;87;21097;-71
2022/10/06 05:51:37;;;;;;;10.23;8.13;;;;;;;13.14;100.00;101857.41;1609662;86;21057;-70
2022/10/06 05:54:06;;;;;;;11.60;8.98;;;;;;;13.26;100.00;101865.63;1597618;87;21188;-70
2022/10/06 05:56:36;;;;;;;13.18;8.23;;;;;;;13.45;100.00;101869.33;1604631;87;21143;-70
2022/10/06 05:59:04;;;;;;;12.45;7.90;;;;;;;13.58;100.00;101877.50;1597652;88;21105;-70
2022/10/06 06:01:42;;;;;;;13.05;8.70;;;;;;;13.78;100.00;101884.57;1600277;88;21056;-70
2022/10/06 06:04:11;;;;;;;11.03;7.53;;;;;;;13.90;100.00;101879.41;1601398;88;21032;-71
2022/10/06 06:06:44;;;;;;;13.78;8.23;;;;;;;14.06;100.00;101883.59;1607028;88;21136;-70
2022/10/06 06:09:19;;;;;;;9.95;8.13;;;;;;;14.18;100.00;101880.54;1618031;85;21639;-70
2022/10/06 06:11:51;;;;;;;11.18;7.92;;;;;;;14.17;100.00;101881.00;1637586;84;21593;-70
2022/10/06 06:16:53;;;;;;;14.30;7.92;;;;;;;14.38;100.00;101881.09;1602473;86;21124;-70
2022/10/06 06:19:22;;;;;;;10.43;6.80;;;;;;;14.53;100.00;101881.78;1635287;85;21061;-71
2022/10/06 06:21:49;;;;;;;12.07;6.80;;;;;;;14.70;100.00;101885.48;1635156;86;21124;-71
2022/10/06 06:24:16;;;;;;;11.83;6.60;;;;;;;14.88;100.00;101890.40;1633548;86;21683;-71
2022/10/06 06:26:43;;;;;;;10.32;6.60;;;;;;;15.08;100.00;101894.33;1635352;86;21160;-70
2022/10/06 06:29:10;;;;;;;10.00;6.87;;;;;;;15.19;100.00;101886.12;1632609;85;21494;-71
2022/10/06 06:31:44;;;;;;;10.18;7.28;;;;;;;15.35;100.00;101891.06;1630208;85;21064;-72
2022/10/06 06:34:12;;;;;;;11.48;7.58;;;;;;;15.47;100.00;101892.73;1624450;85;21624;-72
2022/10/06 06:36:45;;;;;;;8.75;6.90;;;;;;;15.54;100.00;101894.17;1628302;85;21029;-71
2022/10/06 06:39:14;;;;;;;11.75;7.10;;;;;;;15.70;100.00;101895.20;1630042;85;21084;-72
2022/10/06 06:41:45;;;;;;;9.85;6.90;;;;;;;16.01;100.00;101888.67;1630262;85;21143;-71
2022/10/06 06:44:31;;;;;;;9.35;6.03;;;;;;;15.99;100.00;101886.59;1584990;87;21082;-71
2022/10/06 06:47:00;;;;;;;8.85;5.90;;;;;;;16.08;100.00;101899.62;1637380;85;21070;-71
2022/10/06 06:49:27;;;;;;;8.78;4.75;;;;;;;16.26;100.00;101894.05;1637085;85;21527;-72
2022/10/06 06:51:57;;;;;;;9.75;4.62;;;;;;;16.24;100.00;101899.34;1645306;85;21069;-72
2022/10/06 06:54:26;;;;;;;5.25;3.55;;;;;;;16.31;100.00;101899.89;1614355;86;21220;-71
2022/10/06 06:56:56;;;;;;;7.05;3.95;;;;;;;16.45;100.00;101901.86;1600258;87;21115;-72
2022/10/06 06:59:24;;;;;;;8.60;3.80;;;;;;;16.70;100.00;101906.73;1597083;88;21092;-71
2022/10/06 07:01:52;;;;;;;6.47;3.75;;;;;;;16.87;100.00;101908.55;1603910;87;22298;-72
2022/10/06 07:04:21;;;;;;;6.00;3.92;;;;;;;16.86;100.00;101913.39;1607271;87;21616;-72
2022/10/06 07:06:57;;;;;;;5.17;3.50;;;;;;;16.92;100.00;101904.82;1602848;87;21854;-71
2022/10/06 07:09:31;;;;;;;6.42;3.98;;;;;;;17.08;100.00;101913.19;1613720;87;21104;-71
2022/10/06 07:12:01;;;;;;;7.00;4.10;;;;;;;17.25;100.00;101917.09;1607756;87;21043;-72
2022/10/06 07:14:29;;;;;;;6.05;3.42;;;;;;;17.33;100.00;101915.41;1603300;88;21067;-72
2022/10/06 07:25:24;;;;;;;5.20;3.33;;;;;;;17.52;100.00;101912.27;1660391;85;21532;-72
2022/10/06 07:27:54;;;;;;;6.55;3.22;;;;;;;17.66;100.00;101907.66;1658558;85;21063;-71
2022/10/06 07:30:31;;;;;;;6.97;3.67;;;;;;;17.56;100.00;101912.49;1660430;85;21118;-72
2022/10/06 07:33:03;;;;;;;4.47;2.90;;;;;;;17.66;100.00;101912.88;1658883;84;21096;-72
2022/10/06 07:35:30;;;;;;;6.72;3.22;;;;;;;17.65;100.00;101916.38;1657950;85;21725;-72
2022/10/06 07:38:06;;;;;;;7.45;3.17;;;;;;;17.80;100.00;101913.44;1662027;84;21228;-71
2022/10/06 07:40:32;;;;;;;6.87;2.80;;;;;;;17.88;100.00;101916.51;1648044;85;21025;-71
2022/10/06 07:43:01;;;;;;;6.33;2.52;;;;;;;17.92;100.00;101905.00;1668167;84;21086;-71
2022/10/06 07:45:43;;;;;;;6.33;3.05;;;;;;;18.05;100.00;101907.82;1665453;84;21230;-72
2022/10/06 07:48:22;;;;;;;4.47;2.90;;;;;;;18.08;100.00;101905.03;1659470;84;21621;-72
2022/10/06 07:50:59;;;;;;;6.05;2.65;;;;;;;18.26;100.00;101900.61;1647505;85;21027;-71
2022/10/06 07:53:28;;;;;;;3.33;2.45;;;;;;;18.30;100.00;101902.12;1630357;85;21061;-72
2022/10/06 07:56:06;;;;;;;5.67;2.52;;;;;;;18.22;100.00;101899.09;1633064;86;21113;-71
2022/10/06 07:58:36;;;;;;;9.90;2.65;;;;;;;18.21;100.00;101899.55;1665427;84;21096;-71
2022/10/06 08:01:07;;;;;;;4.17;2.60;;;;;;;18.37;100.00;101896.09;1665604;84;21129;-71
2022/10/06 08:03:41;;;;;;;8.38;2.67;;;;;;;18.52;100.00;101896.57;1660240;85;21088;-72
2022/10/06 08:06:12;;;;;;;4.40;2.47;;;;;;;18.65;100.00;101891.50;1660753;84;21018;-72
2022/10/06 08:08:37;;;;;;;4.78;2.42;;;;;;;18.66;100.00;101889.28;1666440;84;21034;-71
2022/10/06 08:11:08;;;;;;;6.75;2.40;;;;;;;18.77;100.00;101889.50;1621387;86;21094;-72
2022/10/06 08:13:39;;;;;;;5.22;2.22;;;;;;;18.99;100.00;101885.70;1600551;87;21132;-72
2022/10/06 08:16:17;;;;;;;3.80;2.10;;;;;;;19.03;100.00;101884.60;1609151;87;22542;-72
2022/10/06 08:18:52;;;;;;;3.20;2.27;;;;;;;19.14;100.00;101887.88;1628985;85;21096;-72
2022/10/06 08:21:33;;;;;;;3.55;2.17;;;;;;;19.16;100.00;101891.25;1609093;87;21135;-72
2022/10/06 08:24:00;;;;;;;4.50;2.30;;;;;;;19.44;100.00;101884.41;1664531;85;21069;-72
2022/10/06 08:26:30;;;;;;;2.92;2.17;;;;;;;19.69;100.00;101887.23;1665001;83;21534;-72
2022/10/06 08:29:01;;;;;;;3.92;2.47;;;;;;;19.91;96.49;101882.88;1662113;84;21066;-72
2022/10/06 08:31:26;;;;;;;4.65;2.27;;;;;;;20.25;97.20;101882.06;1669477;83;21066;-72
2022/10/06 08:33:56;;;;;;;3.77;2.47;;;;;;;20.34;95.45;101884.59;1662787;83;21176;-72
2022/10/06 08:36:26;;;;;;;4.17;2.87;;;;;;;20.48;92.70;101879.75;1655988;85;21058;-71
2022/10/06 08:38:54;;;;;;;6.22;2.50;;;;;;;20.55;92.13;101874.03;1668422;84;21062;-72
2022/10/06 08:41:47;;;;;;;3.40;2.30;;;;;;;20.41;98.38;101879.31;1663339;84;21106;-72
2022/10/06 08:44:18;;;;;;;4.37;2.33;;;;;;;20.30;94.16;101866.94;1611041;87;21116;-72
2022/10/06 08:47:10;;;;;;;3.53;2.63;;;;;;;20.27;96.22;101874.13;1605665;87;21157;-72
2022/10/06 08:49:45;;;;;;;5.35;3.05;;;;;;;20.27;96.22;101874.13;1665872;84;21561;-72
2022/10/06 08:52:46;;;;;;;4.25;2.35;;;;;;;20.32;98.22;101872.91;1641413;86;21078;-72
2022/10/06 08:55:30;;;;;;;3.87;2.70;;;;;;;20.27;95.26;101874.13;1636220;86;21517;-72
2022/10/06 08:58:39;;;;;;;5.17;2.70;;;;;;;20.46;95.76;101869.86;1639785;86;21089;-73
2022/10/06 09:01:23;;;;;;;5.30;2.52;;;;;;;20.57;93.54;101873.95;1597915;86;21177;-72
2022/10/06 09:04:00;;;;;;;5.00;2.52;;;;;;;20.50;94.58;101868.28;1599495;87;21136;-72
2022/10/06 09:06:52;;;;;;;5.70;2.67;;;;;;;20.57;92.76;101870.85;1645720;84;21067;-71
2022/10/06 09:09:44;;;;;;;4.08;2.72;;;;;;;20.30;91.51;101868.24;1660698;85;21724;-72
2022/10/06 09:12:45;;;;;;;3.87;2.47;;;;;;;20.26;92.32;101865.45;1658730;85;21118;-72
2022/10/06 09:15:18;;;;;;;4.20;2.30;;;;;;;20.20;92.19;101865.84;1666548;85;21129;-71
2022/10/06 09:18:09;;;;;;;7.03;2.67;;;;;;;20.28;95.38;101862.27;1662978;85;21158;-72
2022/10/06 09:21:02;;;;;;;3.75;2.37;;;;;;;20.21;95.72;101859.66;1650907;85;21126;-71
2022/10/06 09:23:48;;;;;;;3.37;2.30;;;;;;;20.20;94.55;101861.92;1659716;84;21042;-72
2022/10/06 09:26:27;;;;;;;4.92;2.22;;;;;;;20.13;94.49;101862.78;1652873;83;21050;-71
2022/10/06 09:28:54;;;;;;;4.03;2.17;;;;;;;20.16;93.66;101858.66;1670416;85;21093;-72
2022/10/06 09:31:28;;;;;;;3.67;2.30;;;;;;;20.01;92.92;101863.52;1614735;86;21117;-72
2022/10/06 09:34:16;;;;;;;4.62;2.25;;;;;;;20.04;96.18;101859.42;1598680;87;21113;-71
2022/10/06 09:37:03;;;;;;;5.70;2.10;;;;;;;20.25;96.73;101851.16;1607565;88;21604;-72
2022/10/06 09:39:38;;;;;;;3.52;2.35;;;;;;;20.16;95.61;101855.20;1608404;87;21129;-71
2022/10/06 09:42:28;;;;;;;4.40;2.20;;;;;;;20.01;95.04;101856.98;1614903;87;21083;-71
2022/10/06 09:45:04;;;;;;;2.83;2.10;;;;;;;19.91;95.55;101850.22;1600607;87;21135;-71
2022/10/06 09:47:45;;;;;;;5.05;2.05;;;;;;;19.88;92.20;101853.48;1604519;87;21552;-71
2022/10/06 09:50:23;;;;;;;3.83;2.20;;;;;;;19.84;95.69;101856.74;1608733;86;21130;-72
2022/10/06 09:53:10;;;;;;;4.30;2.02;;;;;;;20.03;96.16;101850.36;1619926;87;21155;-71
2022/10/06 09:55:42;;;;;;;3.92;1.98;;;;;;;20.05;92.37;101851.94;1608823;87;21563;-71
2022/10/06 09:58:23;;;;;;;2.55;2.00;;;;;;;20.06;92.19;101853.63;1608689;88;21139;-71
2022/10/06 10:00:57;;;;;;;2.83;2.15;;;;;;;19.98;91.15;101851.97;1611560;87;21650;-71
2022/10/06 10:03:41;;;;;;;3.58;2.10;;;;;;;19.96;93.24;101854.67;1606411;88;21098;-72
2022/10/06 10:06:26;;;;;;;7.53;2.12;;;;;;;20.03;92.46;101850.36;1567429;88;21060;-72
2022/10/06 10:09:24;;;;;;;5.28;2.20;;;;;;;20.02;94.57;101848.23;1610319;88;21599;-72
2022/10/06 10:12:23;;;;;;;2.65;2.00;;;;;;;19.99;88.23;101845.34;1601892;88;21055;-72
2022/10/06 10:14:58;;;;;;;5.90;2.10;;;;;;;19.96;90.33;101842.08;1610265;87;21567;-71
2022/10/06 10:17:52;;;;;;;4.03;1.82;;;;;;;19.98;89.52;101838.42;1637848;85;21058;-72
2022/10/06 10:20:35;;;;;;;3.27;1.98;;;;;;;19.81;88.57;101834.27;1663284;85;21054;-72
2022/10/06 10:23:31;;;;;;;4.17;1.87;;;;;;;19.77;90.31;101835.39;1658781;85;21098;-71
2022/10/06 10:26:16;;;;;;;5.28;2.15;;;;;;;19.75;91.11;101834.64;1655736;85;21082;-71
2022/10/06 10:29:32;;;;;;;4.08;2.37;;;;;;;19.86;90.17;101829.22;1665013;85;21110;-72
2022/10/06 10:32:26;;;;;;;5.50;2.42;;;;;;;19.86;90.35;101836.58;1660972;85;21042;-71
2022/10/06 10:35:21;;;;;;;3.95;2.00;;;;;;;19.81;90.15;101822.50;1677398;84;21014;-71
2022/10/06 10:38:09;;;;;;;2.77;2.00;;;;;;;19.93;91.45;101816.13;1666509;84;21093;-71
2022/10/06 10:41:05;;;;;;;3.02;1.92;;;;;;;20.14;89.10;101824.41;1640209;85;21153;-70
2022/10/06 10:43:39;;;;;;;3.98;2.00;;;;;;;20.15;85.62;101823.00;1662771;85;21090;-72
2022/10/06 10:46:35;;;;;;;3.27;1.98;;;;;;;20.19;86.98;101823.63;1668503;85;21103;-72
2022/10/06 10:49:18;;;;;;;8.03;2.20;;;;;;;20.18;87.01;101818.04;1640806;85;21141;-71
2022/10/06 10:52:00;;;;;;;6.95;2.33;;;;;;;20.15;85.75;101823.00;1660300;85;21018;-71
2022/10/06 10:54:35;;;;;;;7.20;2.50;;;;;;;20.14;83.97;101820.00;1661697;85;21579;-71
2022/10/06 10:57:03;;;;;;;2.60;2.00;;;;;;;20.09;84.60;101819.92;1664577;85;21026;-71
2022/10/06 10:59:41;;;;;;;5.25;2.55;;;;;;;20.16;86.36;101814.20;1663519;85;21823;-71
2022/10/06 11:02:21;;;;;;;5.22;2.45;;;;;;;20.20;85.99;101815.69;1663035;85;21584;-71
2022/10/06 11:05:09;;;;;;;6.92;2.60;;;;;;;20.25;83.76;101813.25;1662076;85;21644;-71
2022/10/06 11:07:55;;;;;;;7.15;2.50;;;;;;;20.26;85.54;101813.16;1656687;85;21117;-71
2022/10/06 11:10:27;;;;;;;5.97;2.50;;;;;;;20.28;85.12;101813.06;1667205;85;21053;-71
2022/10/06 11:13:30;;;;;;;6.58;2.45;;;;;;;20.27;84.42;101812.68;1667433;85;21089;-72
2022/10/06 11:16:19;;;;;;;6.33;2.40;;;;;;;20.25;85.94;101811.47;1662825;85;21048;-71
2022/10/06 11:19:19;;;;;;;6.87;2.40;;;;;;;20.34;82.99;101816.11;1669317;85;21079;-71
2022/10/06 11:22:25;;;;;;;5.87;2.47;;;;;;;20.33;79.61;101812.28;1663214;85;21063;-71
2022/10/06 11:25:00;;;;;;;5.87;2.35;;;;;;;20.29;81.51;101804.27;1669210;85;21069;-72
2022/10/06 11:27:44;;;;;;;4.78;2.15;;;;;;;20.29;83.68;101807.71;1659746;85;21081;-71
2022/10/06 11:30:17;;;;;;;;;;;;;;;20.37;82.85;101806.75;1663998;84;21090;-71
2022/10/06 11:33:01;;;;;;;6.75;2.35;;;;;;;20.41;79.57;101808.22;1664198;85;20112;-71
2022/10/06 11:35:34;;;;;;;;;;;;;;;20.39;81.62;101806.18;1663751;84;21101;-71
2022/10/06 11:38:34;;;;;;;7.22;2.08;;;;;;;20.39;84.56;101800.11;1651949;83;20162;-72
2022/10/06 11:41:30;;;;;;;7.12;2.60;;;;;;;20.43;83.15;101806.83;1660370;84;21073;-71
2022/10/06 11:44:31;;;;;;;11.15;2.40;;;;;;;20.53;82.82;101803.97;1664898;85;21129;-71
2022/10/06 11:47:07;;;;;;;9.60;2.42;;;;;;;20.52;83.10;101804.06;1656495;84;21105;-71
2022/10/06 11:49:50;;;;;;;10.45;2.55;;;;;;;20.63;84.64;101800.32;1664526;84;21152;-71
2022/10/06 11:52:23;;;;;;;7.30;2.58;;;;;;;20.69;80.87;101803.01;1666020;85;21046;-71
2022/10/06 11:55:16;;;;;;;6.42;2.70;;;;;;;20.59;83.66;101803.60;1664072;84;21526;-70
2022/10/06 11:58:08;;;;;;;5.47;2.40;;;;;;;20.58;82.95;101799.33;1656481;83;21039;-71